sensor_id;sensor_type;location;lat;lon;timestamp;pressure;altitude;pressure_sealevel;temperature
24278;BMP280;12394;42.692;23.314;2023-09-19T00:00:34;95384.25;;;17.38
24278;BMP280;12394;42.692;23.314;2023-09-19T00:03:01;95379.81;;;17.35
24278;BMP280;12394;42.692;23.314;2023-09-19T00:05:27;95369.72;;;17.30
24278;BMP280;12394;42.692;23.314;2023-09-19T00:07:56;95382.97;;;17.30
24278;BMP280;12394;42.692;23.314;2023-09-19T00:10:24;95386.41;;;17.27
24278;BMP280;12394;42.692;23.314;2023-09-19T00:12:54;95381.63;;;17.22
24278;BMP280;12394;42.692;23.314;2023-09-19T00:15:24;95390.00;;;17.20
24278;BMP280;12394;42.692;23.314;2023-09-19T00:17:51;95377.44;;;17.08
24278;BMP280;12394;42.692;23.314;2023-09-19T00:20:20;95377.13;;;17.06
24278;BMP280;12394;42.692;23.314;2023-09-19T00:22:48;95380.34;;;17.14
24278;BMP280;12394;42.692;23.314;2023-09-19T00:25:14;95363.53;;;17.08
24278;BMP280;12394;42.692;23.314;2023-09-19T00:27:40;95374.13;;;17.20
24278;BMP280;12394;42.692;23.314;2023-09-19T00:30:08;95362.69;;;17.11
24278;BMP280;12394;42.692;23.314;2023-09-19T00:32:42;95375.06;;;17.14
24278;BMP280;12394;42.692;23.314;2023-09-19T00:35:08;95361.69;;;17.05
24278;BMP280;12394;42.692;23.314;2023-09-19T00:37:35;95369.84;;;17.10
24278;BMP280;12394;42.692;23.314;2023-09-19T00:40:01;95367.47;;;17.16
24278;BMP280;12394;42.692;23.314;2023-09-19T00:42:27;95357.28;;;17.14
24278;BMP280;12394;42.692;23.314;2023-09-19T00:44:53;95360.88;;;17.08
24278;BMP280;12394;42.692;23.314;2023-09-19T00:47:18;95355.59;;;17.08
24278;BMP280;12394;42.692;23.314;2023-09-19T00:49:45;95359.38;;;17.07
24278;BMP280;12394;42.692;23.314;2023-09-19T00:52:14;95365.47;;;17.04
24278;BMP280;12394;42.692;23.314;2023-09-19T00:54:39;95371.22;;;17.02
24278;BMP280;12394;42.692;23.314;2023-09-19T00:57:05;95361.22;;;16.94
24278;BMP280;12394;42.692;23.314;2023-09-19T00:59:33;95368.56;;;16.86
24278;BMP280;12394;42.692;23.314;2023-09-19T01:02:02;95361.91;;;16.81
24278;BMP280;12394;42.692;23.314;2023-09-19T01:04:27;95364.53;;;16.81
24278;BMP280;12394;42.692;23.314;2023-09-19T01:06:53;95372.31;;;16.88
24278;BMP280;12394;42.692;23.314;2023-09-19T01:09:20;95364.13;;;16.83
24278;BMP280;12394;42.692;23.314;2023-09-19T01:11:47;95343.50;;;16.78
24278;BMP280;12394;42.692;23.314;2023-09-19T01:22:21;95370.00;;;16.58
24278;BMP280;12394;42.692;23.314;2023-09-19T01:28:06;95376.28;;;16.64
24278;BMP280;12394;42.692;23.314;2023-09-19T01:30:35;95365.88;;;16.57
24278;BMP280;12394;42.692;23.314;2023-09-19T01:33:05;95379.25;;;16.66
24278;BMP280;12394;42.692;23.314;2023-09-19T01:35:31;95372.59;;;16.62
24278;BMP280;12394;42.692;23.314;2023-09-19T01:37:58;95344.56;;;16.48
24278;BMP280;12394;42.692;23.314;2023-09-19T01:40:24;95370.00;;;16.58
24278;BMP280;12394;42.692;23.314;2023-09-19T01:48:32;95370.75;;;16.59
24278;BMP280;12394;42.692;23.314;2023-09-19T01:51:09;95371.16;;;16.57
24278;BMP280;12394;42.692;23.314;2023-09-19T01:53:43;95373.31;;;16.62
24278;BMP280;12394;42.692;23.314;2023-09-19T01:56:23;95365.88;;;16.57
24278;BMP280;12394;42.692;23.314;2023-09-19T01:58:53;95356.84;;;16.55
24278;BMP280;12394;42.692;23.314;2023-09-19T02:01:22;95380.06;;;16.63
24278;BMP280;12394;42.692;23.314;2023-09-19T02:03:50;95379.56;;;16.68
24278;BMP280;12394;42.692;23.314;2023-09-19T02:06:16;95360.84;;;16.63
24278;BMP280;12394;42.692;23.314;2023-09-19T02:08:44;95376.84;;;16.72
24278;BMP280;12394;42.692;23.314;2023-09-19T02:11:13;95371.66;;;16.68
24278;BMP280;12394;42.692;23.314;2023-09-19T02:13:39;95380.97;;;16.73
24278;BMP280;12394;42.692;23.314;2023-09-19T02:16:06;95368.84;;;16.75
24278;BMP280;12394;42.692;23.314;2023-09-19T02:18:32;95372.97;;;16.76
24278;BMP280;12394;42.692;23.314;2023-09-19T02:21:01;95363.72;;;16.68
24278;BMP280;12394;42.692;23.314;2023-09-19T02:23:26;95366.88;;;16.79
24278;BMP280;12394;42.692;23.314;2023-09-19T02:25:55;95360.84;;;16.79
24278;BMP280;12394;42.692;23.314;2023-09-19T02:28:23;95341.44;;;16.69
24278;BMP280;12394;42.692;23.314;2023-09-19T02:30:49;95316.66;;;16.47
24278;BMP280;12394;42.692;23.314;2023-09-19T02:33:16;95356.63;;;16.65
24278;BMP280;12394;42.692;23.314;2023-09-19T02:35:42;95354.41;;;16.64
24278;BMP280;12394;42.692;23.314;2023-09-19T02:38:08;95346.81;;;16.66
24278;BMP280;12394;42.692;23.314;2023-09-19T02:40:36;95348.38;;;16.63
24278;BMP280;12394;42.692;23.314;2023-09-19T02:43:02;95344.00;;;16.57
24278;BMP280;12394;42.692;23.314;2023-09-19T02:45:28;95337.47;;;16.45
24278;BMP280;12394;42.692;23.314;2023-09-19T02:47:55;95347.22;;;16.48
24278;BMP280;12394;42.692;23.314;2023-09-19T02:50:20;95339.78;;;16.43
24278;BMP280;12394;42.692;23.314;2023-09-19T02:52:47;95329.06;;;16.34
24278;BMP280;12394;42.692;23.314;2023-09-19T02:55:15;95336.88;;;16.37
24278;BMP280;12394;42.692;23.314;2023-09-19T02:57:52;95337.97;;;16.24
24278;BMP280;12394;42.692;23.314;2023-09-19T03:02:54;95333.34;;;16.28
24278;BMP280;12394;42.692;23.314;2023-09-19T03:05:21;95335.09;;;16.34
24278;BMP280;12394;42.692;23.314;2023-09-19T03:07:47;95319.31;;;16.31
24278;BMP280;12394;42.692;23.314;2023-09-19T03:10:20;95333.09;;;16.38
24278;BMP280;12394;42.692;23.314;2023-09-19T03:12:46;95309.25;;;16.26
24278;BMP280;12394;42.692;23.314;2023-09-19T03:15:12;95323.28;;;16.23
24278;BMP280;12394;42.692;23.314;2023-09-19T03:17:43;95327.41;;;16.24
24278;BMP280;12394;42.692;23.314;2023-09-19T03:20:09;95326.66;;;16.23
24278;BMP280;12394;42.692;23.314;2023-09-19T03:22:37;95312.72;;;16.07
24278;BMP280;12394;42.692;23.314;2023-09-19T03:25:03;95331.75;;;16.14
24278;BMP280;12394;42.692;23.314;2023-09-19T03:27:35;95316.66;;;16.15
24278;BMP280;12394;42.692;23.314;2023-09-19T03:30:01;95319.31;;;16.15
24278;BMP280;12394;42.692;23.314;2023-09-19T03:32:30;95308.97;;;16.04
24278;BMP280;12394;42.692;23.314;2023-09-19T03:34:56;95324.19;;;16.16
24278;BMP280;12394;42.692;23.314;2023-09-19T03:37:21;95326.84;;;16.16
24278;BMP280;12394;42.692;23.314;2023-09-19T03:39:47;95317.81;;;16.14
24278;BMP280;12394;42.692;23.314;2023-09-19T03:42:12;95335.22;;;16.27
24278;BMP280;12394;42.692;23.314;2023-09-19T03:44:37;95339.28;;;16.32
24278;BMP280;12394;42.692;23.314;2023-09-19T03:47:03;95342.25;;;16.34
24278;BMP280;12394;42.692;23.314;2023-09-19T03:49:30;95346.72;;;16.37
24278;BMP280;12394;42.692;23.314;2023-09-19T03:51:55;95342.25;;;16.34
24278;BMP280;12394;42.692;23.314;2023-09-19T03:54:21;95348.34;;;16.31
24278;BMP280;12394;42.692;23.314;2023-09-19T03:56:46;95348.88;;;16.26
24278;BMP280;12394;42.692;23.314;2023-09-19T03:59:12;95348.34;;;16.31
24278;BMP280;12394;42.692;23.314;2023-09-19T04:01:38;95351.34;;;16.33
24278;BMP280;12394;42.692;23.314;2023-09-19T04:04:06;95333.19;;;16.35
24278;BMP280;12394;42.692;23.314;2023-09-19T04:06:35;95347.06;;;16.39
24278;BMP280;12394;42.692;23.314;2023-09-19T04:09:02;95354.31;;;16.35
24278;BMP280;12394;42.692;23.314;2023-09-19T04:11:29;95356.53;;;16.36
24278;BMP280;12394;42.692;23.314;2023-09-19T04:13:55;95366.69;;;16.38
24278;BMP280;12394;42.692;23.314;2023-09-19T04:16:20;95365.44;;;16.42
24278;BMP280;12394;42.692;23.314;2023-09-19T04:18:46;95370.97;;;16.48
24278;BMP280;12394;42.692;23.314;2023-09-19T04:21:11;95368.00;;;16.46
24278;BMP280;12394;42.692;23.314;2023-09-19T04:23:37;95360.00;;;16.50
24278;BMP280;12394;42.692;23.314;2023-09-19T04:26:02;95348.50;;;16.40
24278;BMP280;12394;42.692;23.314;2023-09-19T04:28:30;95360.00;;;16.50
24278;BMP280;12394;42.692;23.314;2023-09-19T04:30:56;95349.97;;;16.61
24278;BMP280;12394;42.692;23.314;2023-09-19T04:33:21;95352.31;;;16.55
24278;BMP280;12394;42.692;23.314;2023-09-19T04:35:49;95356.59;;;16.49
24278;BMP280;12394;42.692;23.314;2023-09-19T04:38:15;95356.84;;;16.55
24278;BMP280;12394;42.692;23.314;2023-09-19T04:40:41;95348.19;;;16.54
24278;BMP280;12394;42.692;23.314;2023-09-19T04:43:06;95351.16;;;16.72
24278;BMP280;12394;42.692;23.314;2023-09-19T04:45:32;95353.91;;;16.69
24278;BMP280;12394;42.692;23.314;2023-09-19T04:47:58;95346.22;;;16.74
24278;BMP280;12394;42.692;23.314;2023-09-19T04:50:23;95314.28;;;16.69
24278;BMP280;12394;42.692;23.314;2023-09-19T04:52:53;95344.03;;;16.85
24278;BMP280;12394;42.692;23.314;2023-09-19T04:55:19;95332.38;;;16.70
24278;BMP280;12394;42.692;23.314;2023-09-19T04:57:45;95335.50;;;16.65
24278;BMP280;12394;42.692;23.314;2023-09-19T05:00:13;95332.16;;;16.77
24278;BMP280;12394;42.692;23.314;2023-09-19T05:02:43;95343.03;;;16.96
24278;BMP280;12394;42.692;23.314;2023-09-19T05:05:09;95337.22;;;17.17
24278;BMP280;12394;42.692;23.314;2023-09-19T05:07:42;95343.16;;;17.21
24278;BMP280;12394;42.692;23.314;2023-09-19T05:10:09;95335.25;;;17.33
24278;BMP280;12394;42.692;23.314;2023-09-19T05:12:39;95348.97;;;17.57
24278;BMP280;12394;42.692;23.314;2023-09-19T05:15:05;95343.19;;;17.75
24278;BMP280;12394;42.692;23.314;2023-09-19T05:17:34;95340.66;;;17.84
24278;BMP280;12394;42.692;23.314;2023-09-19T05:20:03;95341.41;;;17.97
24278;BMP280;12394;42.692;23.314;2023-09-19T05:22:42;95336.22;;;18.19
24278;BMP280;12394;42.692;23.314;2023-09-19T05:25:09;95325.38;;;18.39
24278;BMP280;12394;42.692;23.314;2023-09-19T05:27:35;95331.66;;;18.57
24278;BMP280;12394;42.692;23.314;2023-09-19T05:30:00;95321.63;;;18.74
24278;BMP280;12394;42.692;23.314;2023-09-19T05:32:26;95325.22;;;18.80
24278;BMP280;12394;42.692;23.314;2023-09-19T05:34:51;95326.00;;;18.90
24278;BMP280;12394;42.692;23.314;2023-09-19T05:37:22;95324.06;;;19.03
24278;BMP280;12394;42.692;23.314;2023-09-19T05:39:49;95330.63;;;19.11
24278;BMP280;12394;42.692;23.314;2023-09-19T05:42:14;95315.59;;;19.17
24278;BMP280;12394;42.692;23.314;2023-09-19T05:44:40;95314.69;;;19.33
24278;BMP280;12394;42.692;23.314;2023-09-19T05:47:05;95318.22;;;19.30
24278;BMP280;12394;42.692;23.314;2023-09-19T05:49:37;95322.38;;;19.40
24278;BMP280;12394;42.692;23.314;2023-09-19T05:52:06;95312.44;;;19.44
24278;BMP280;12394;42.692;23.314;2023-09-19T05:54:32;95325.38;;;19.64
24278;BMP280;12394;42.692;23.314;2023-09-19T05:57:00;95336.53;;;19.80
24278;BMP280;12394;42.692;23.314;2023-09-19T05:59:25;95326.97;;;19.92
24278;BMP280;12394;42.692;23.314;2023-09-19T06:01:50;95331.53;;;19.91
24278;BMP280;12394;42.692;23.314;2023-09-19T06:04:17;95319.97;;;20.07
24278;BMP280;12394;42.692;23.314;2023-09-19T06:06:44;95316.28;;;20.14
24278;BMP280;12394;42.692;23.314;2023-09-19T06:09:10;95317.06;;;20.23
24278;BMP280;12394;42.692;23.314;2023-09-19T06:11:35;95315.34;;;20.38
24278;BMP280;12394;42.692;23.314;2023-09-19T06:14:04;95306.81;;;20.62
24278;BMP280;12394;42.692;23.314;2023-09-19T06:16:30;95309.50;;;20.71
24278;BMP280;12394;42.692;23.314;2023-09-19T06:18:57;95309.03;;;20.91
24278;BMP280;12394;42.692;23.314;2023-09-19T06:21:25;95297.53;;;21.03
24278;BMP280;12394;42.692;23.314;2023-09-19T06:23:52;95298.56;;;21.14
24278;BMP280;12394;42.692;23.314;2023-09-19T06:26:18;95304.75;;;21.39
24278;BMP280;12394;42.692;23.314;2023-09-19T06:28:43;95300.72;;;21.61
24278;BMP280;12394;42.692;23.314;2023-09-19T06:31:09;95304.47;;;21.97
24278;BMP280;12394;42.692;23.314;2023-09-19T06:33:38;95297.06;;;22.25
24278;BMP280;12394;42.692;23.314;2023-09-19T06:36:08;95299.06;;;22.39
24278;BMP280;12394;42.692;23.314;2023-09-19T06:38:34;95299.69;;;22.57
24278;BMP280;12394;42.692;23.314;2023-09-19T06:41:02;95300.50;;;22.73
24278;BMP280;12394;42.692;23.314;2023-09-19T06:43:32;95306.47;;;23.06
24278;BMP280;12394;42.692;23.314;2023-09-19T06:45:59;95294.44;;;23.25
24278;BMP280;12394;42.692;23.314;2023-09-19T06:48:25;95302.81;;;23.33
24278;BMP280;12394;42.692;23.314;2023-09-19T06:50:53;95312.50;;;23.60
24278;BMP280;12394;42.692;23.314;2023-09-19T06:53:20;95317.25;;;23.41
24278;BMP280;12394;42.692;23.314;2023-09-19T06:55:49;95314.97;;;23.34
24278;BMP280;12394;42.692;23.314;2023-09-19T06:58:15;95314.59;;;23.41
24278;BMP280;12394;42.692;23.314;2023-09-19T07:00:42;95318.44;;;23.40
24278;BMP280;12394;42.692;23.314;2023-09-19T07:03:08;95317.66;;;23.48
24278;BMP280;12394;42.692;23.314;2023-09-19T07:05:37;95325.13;;;23.44
24278;BMP280;12394;42.692;23.314;2023-09-19T07:08:04;95316.41;;;23.35
24278;BMP280;12394;42.692;23.314;2023-09-19T07:10:31;95318.19;;;23.38
24278;BMP280;12394;42.692;23.314;2023-09-19T07:13:01;95315.53;;;23.38
24278;BMP280;12394;42.692;23.314;2023-09-19T07:15:29;95315.72;;;23.34
24278;BMP280;12394;42.692;23.314;2023-09-19T07:17:56;95310.75;;;23.71
24278;BMP280;12394;42.692;23.314;2023-09-19T07:20:22;95297.28;;;23.80
24278;BMP280;12394;42.692;23.314;2023-09-19T07:22:50;95328.31;;;24.07
24278;BMP280;12394;42.692;23.314;2023-09-19T07:25:16;95324.25;;;24.12
24278;BMP280;12394;42.692;23.314;2023-09-19T07:27:42;95317.25;;;24.00
24278;BMP280;12394;42.692;23.314;2023-09-19T07:30:09;95306.88;;;23.72
24278;BMP280;12394;42.692;23.314;2023-09-19T07:32:35;95322.06;;;23.81
24278;BMP280;12394;42.692;23.314;2023-09-19T07:35:02;95315.38;;;23.71
24278;BMP280;12394;42.692;23.314;2023-09-19T07:37:29;95323.91;;;23.89
24278;BMP280;12394;42.692;23.314;2023-09-19T07:39:56;95315.53;;;23.67
24278;BMP280;12394;42.692;23.314;2023-09-19T07:42:22;95317.00;;;23.83
24278;BMP280;12394;42.692;23.314;2023-09-19T07:44:47;95317.25;;;24.00
24278;BMP280;12394;42.692;23.314;2023-09-19T07:47:16;95318.19;;;23.97
24278;BMP280;12394;42.692;23.314;2023-09-19T07:49:41;95320.47;;;24.04
24278;BMP280;12394;42.692;23.314;2023-09-19T07:52:08;95328.38;;;24.27
24278;BMP280;12394;42.692;23.314;2023-09-19T07:54:40;95327.00;;;24.52
24278;BMP280;12394;42.692;23.314;2023-09-19T07:57:10;95324.09;;;24.91
24278;BMP280;12394;42.692;23.314;2023-09-19T07:59:37;95327.59;;;25.22
24278;BMP280;12394;42.692;23.314;2023-09-19T08:02:04;95334.50;;;25.55
24278;BMP280;12394;42.692;23.314;2023-09-19T08:04:31;95330.63;;;25.87
24278;BMP280;12394;42.692;23.314;2023-09-19T08:06:59;95317.81;;;26.39
24278;BMP280;12394;42.692;23.314;2023-09-19T08:09:28;95318.31;;;26.86
24278;BMP280;12394;42.692;23.314;2023-09-19T08:11:58;95300.50;;;26.94
24278;BMP280;12394;42.692;23.314;2023-09-19T08:14:24;95300.97;;;26.87
24278;BMP280;12394;42.692;23.314;2023-09-19T08:16:51;95306.94;;;27.24
24278;BMP280;12394;42.692;23.314;2023-09-19T08:19:16;95302.13;;;27.56
24278;BMP280;12394;42.692;23.314;2023-09-19T08:21:42;95304.28;;;27.47
24278;BMP280;12394;42.692;23.314;2023-09-19T08:24:11;95301.13;;;27.81
24278;BMP280;12394;42.692;23.314;2023-09-19T08:26:37;95294.22;;;28.42
24278;BMP280;12394;42.692;23.314;2023-09-19T08:29:03;95294.88;;;28.59
24278;BMP280;12394;42.692;23.314;2023-09-19T08:31:30;95299.16;;;29.42
24278;BMP280;12394;42.692;23.314;2023-09-19T08:33:56;95306.66;;;29.90
24278;BMP280;12394;42.692;23.314;2023-09-19T08:36:21;95313.94;;;29.65
24278;BMP280;12394;42.692;23.314;2023-09-19T08:38:47;95308.88;;;30.40
24278;BMP280;12394;42.692;23.314;2023-09-19T08:41:17;95298.16;;;30.77
24278;BMP280;12394;42.692;23.314;2023-09-19T08:43:42;95307.06;;;30.91
24278;BMP280;12394;42.692;23.314;2023-09-19T08:46:15;95295.13;;;30.62
24278;BMP280;12394;42.692;23.314;2023-09-19T08:48:50;95298.59;;;32.01
24278;BMP280;12394;42.692;23.314;2023-09-19T08:51:42;95294.03;;;31.64
24278;BMP280;12394;42.692;23.314;2023-09-19T08:54:24;95301.28;;;31.06
24278;BMP280;12394;42.692;23.314;2023-09-19T08:56:55;95288.94;;;29.94
24278;BMP280;12394;42.692;23.314;2023-09-19T08:59:25;95291.53;;;29.05
24278;BMP280;12394;42.692;23.314;2023-09-19T09:01:53;95290.28;;;29.11
24278;BMP280;12394;42.692;23.314;2023-09-19T09:04:22;95283.09;;;28.73
24278;BMP280;12394;42.692;23.314;2023-09-19T09:06:49;95283.66;;;28.49
24278;BMP280;12394;42.692;23.314;2023-09-19T09:09:18;95284.03;;;28.81
24278;BMP280;12394;42.692;23.314;2023-09-19T09:11:43;95277.13;;;28.22
24278;BMP280;12394;42.692;23.314;2023-09-19T09:14:09;95256.00;;;28.49
24278;BMP280;12394;42.692;23.314;2023-09-19T09:16:36;95275.81;;;29.50
24278;BMP280;12394;42.692;23.314;2023-09-19T09:19:01;95272.41;;;29.44
24278;BMP280;12394;42.692;23.314;2023-09-19T09:21:27;95272.72;;;29.35
24278;BMP280;12394;42.692;23.314;2023-09-19T09:23:54;95255.41;;;28.78
24278;BMP280;12394;42.692;23.314;2023-09-19T09:26:41;95261.56;;;30.33
24278;BMP280;12394;42.692;23.314;2023-09-19T09:29:07;95258.88;;;30.95
24278;BMP280;12394;42.692;23.314;2023-09-19T09:31:33;95260.63;;;31.62
24278;BMP280;12394;42.692;23.314;2023-09-19T09:33:59;95241.84;;;32.48
24278;BMP280;12394;42.692;23.314;2023-09-19T09:36:36;95255.53;;;32.30
24278;BMP280;12394;42.692;23.314;2023-09-19T09:39:02;95240.06;;;31.53
24278;BMP280;12394;42.692;23.314;2023-09-19T09:41:41;95238.91;;;31.49
24278;BMP280;12394;42.692;23.314;2023-09-19T09:44:17;95229.84;;;31.33
24278;BMP280;12394;42.692;23.314;2023-09-19T09:46:45;95228.81;;;31.94
24278;BMP280;12394;42.692;23.314;2023-09-19T09:49:25;95236.69;;;32.24
24278;BMP280;12394;42.692;23.314;2023-09-19T09:52:07;95227.19;;;32.31
24278;BMP280;12394;42.692;23.314;2023-09-19T09:54:34;95227.00;;;32.89
24278;BMP280;12394;42.692;23.314;2023-09-19T09:59:57;95219.78;;;31.47
24278;BMP280;12394;42.692;23.314;2023-09-19T10:02:45;95224.09;;;30.86
24278;BMP280;12394;42.692;23.314;2023-09-19T10:05:19;95215.31;;;30.24
24278;BMP280;12394;42.692;23.314;2023-09-19T10:07:46;95222.22;;;29.71
24278;BMP280;12394;42.692;23.314;2023-09-19T10:13:02;95226.44;;;29.31
24278;BMP280;12394;42.692;23.314;2023-09-19T10:15:32;95219.94;;;29.15
24278;BMP280;12394;42.692;23.314;2023-09-19T10:18:00;95209.75;;;28.45
24278;BMP280;12394;42.692;23.314;2023-09-19T10:20:28;95220.34;;;28.26
24278;BMP280;12394;42.692;23.314;2023-09-19T10:23:07;95215.81;;;27.93
24278;BMP280;12394;42.692;23.314;2023-09-19T10:25:40;95219.00;;;27.64
24278;BMP280;12394;42.692;23.314;2023-09-19T10:28:11;95197.97;;;27.84
24278;BMP280;12394;42.692;23.314;2023-09-19T10:30:41;95206.72;;;28.07
24278;BMP280;12394;42.692;23.314;2023-09-19T10:33:11;95213.94;;;28.40
24278;BMP280;12394;42.692;23.314;2023-09-19T10:35:43;95213.06;;;28.15
24278;BMP280;12394;42.692;23.314;2023-09-19T10:38:13;95201.84;;;28.11
24278;BMP280;12394;42.692;23.314;2023-09-19T10:40:40;95210.66;;;28.12
24278;BMP280;12394;42.692;23.314;2023-09-19T10:43:11;95214.78;;;28.18
24278;BMP280;12394;42.692;23.314;2023-09-19T10:45:38;95193.50;;;28.04
24278;BMP280;12394;42.692;23.314;2023-09-19T10:48:06;95194.09;;;27.63
24278;BMP280;12394;42.692;23.314;2023-09-19T10:53:17;95187.00;;;27.10
24278;BMP280;12394;42.692;23.314;2023-09-19T10:55:50;95183.84;;;27.06
24278;BMP280;12394;42.692;23.314;2023-09-19T10:58:29;95166.72;;;27.31
24278;BMP280;12394;42.692;23.314;2023-09-19T11:01:00;95185.06;;;27.38
24278;BMP280;12394;42.692;23.314;2023-09-19T11:03:37;95179.19;;;27.46
24278;BMP280;12394;42.692;23.314;2023-09-19T11:06:13;95181.63;;;27.32
24278;BMP280;12394;42.692;23.314;2023-09-19T11:09:03;95185.53;;;27.31
24278;BMP280;12394;42.692;23.314;2023-09-19T11:25:43;95171.13;;;27.57
24278;BMP280;12394;42.692;23.314;2023-09-19T11:30:39;95160.34;;;27.46
24278;BMP280;12394;42.692;23.314;2023-09-19T11:36:11;95160.00;;;27.99
24278;BMP280;12394;42.692;23.314;2023-09-19T11:39:00;95149.97;;;28.16
24278;BMP280;12394;42.692;23.314;2023-09-19T11:41:36;95131.81;;;28.22
24278;BMP280;12394;42.692;23.314;2023-09-19T11:46:33;95127.50;;;28.55
24278;BMP280;12394;42.692;23.314;2023-09-19T11:49:06;95127.06;;;28.40
24278;BMP280;12394;42.692;23.314;2023-09-19T11:51:42;95120.31;;;28.27
24278;BMP280;12394;42.692;23.314;2023-09-19T11:54:13;95112.41;;;28.41
24278;BMP280;12394;42.692;23.314;2023-09-19T11:56:46;95123.69;;;28.34
24278;BMP280;12394;42.692;23.314;2023-09-19T11:59:20;95132.81;;;28.19
24278;BMP280;12394;42.692;23.314;2023-09-19T12:01:54;95123.28;;;28.18
24278;BMP280;12394;42.692;23.314;2023-09-19T12:04:39;95134.28;;;28.20
24278;BMP280;12394;42.692;23.314;2023-09-19T12:07:10;95114.28;;;28.10
24278;BMP280;12394;42.692;23.314;2023-09-19T12:10:05;95114.75;;;28.14
24278;BMP280;12394;42.692;23.314;2023-09-19T12:12:31;95103.69;;;28.23
24278;BMP280;12394;42.692;23.314;2023-09-19T12:15:23;95091.31;;;27.98
24278;BMP280;12394;42.692;23.314;2023-09-19T12:17:50;95098.13;;;28.16
24278;BMP280;12394;42.692;23.314;2023-09-19T12:20:15;95090.59;;;28.44
24278;BMP280;12394;42.692;23.314;2023-09-19T12:22:43;95084.81;;;28.70
24278;BMP280;12394;42.692;23.314;2023-09-19T12:25:10;95084.75;;;28.76
24278;BMP280;12394;42.692;23.314;2023-09-19T12:27:49;95084.06;;;28.75
24278;BMP280;12394;42.692;23.314;2023-09-19T12:30:18;95077.22;;;28.74
24278;BMP280;12394;42.692;23.314;2023-09-19T12:32:44;95070.91;;;28.60
24278;BMP280;12394;42.692;23.314;2023-09-19T12:35:27;95060.59;;;28.64
24278;BMP280;12394;42.692;23.314;2023-09-19T12:37:53;95068.72;;;28.59
24278;BMP280;12394;42.692;23.314;2023-09-19T12:40:21;95068.06;;;28.47
24278;BMP280;12394;42.692;23.314;2023-09-19T12:42:48;95065.00;;;28.62
24278;BMP280;12394;42.692;23.314;2023-09-19T12:45:17;95059.41;;;28.60
24278;BMP280;12394;42.692;23.314;2023-09-19T12:51:07;95067.75;;;28.21
24278;BMP280;12394;42.692;23.314;2023-09-19T12:53:43;95056.19;;;28.26
24278;BMP280;12394;42.692;23.314;2023-09-19T12:56:12;95054.00;;;28.30
24278;BMP280;12394;42.692;23.314;2023-09-19T12:58:51;95061.25;;;28.41
24278;BMP280;12394;42.692;23.314;2023-09-19T13:01:19;95060.22;;;28.49
24278;BMP280;12394;42.692;23.314;2023-09-19T13:03:44;95043.31;;;28.49
24278;BMP280;12394;42.692;23.314;2023-09-19T13:06:11;95041.47;;;28.38
24278;BMP280;12394;42.692;23.314;2023-09-19T13:08:38;95033.97;;;28.25
24278;BMP280;12394;42.692;23.314;2023-09-19T13:11:11;95039.84;;;28.24
24278;BMP280;12394;42.692;23.314;2023-09-19T13:13:39;95040.75;;;28.32
24278;BMP280;12394;42.692;23.314;2023-09-19T13:16:06;95034.22;;;28.22
24278;BMP280;12394;42.692;23.314;2023-09-19T13:18:53;95033.97;;;28.25
24278;BMP280;12394;42.692;23.314;2023-09-19T13:21:33;95032.78;;;28.21
24278;BMP280;12394;42.692;23.314;2023-09-19T13:24:19;95028.53;;;28.31
24278;BMP280;12394;42.692;23.314;2023-09-19T13:26:46;95025.09;;;28.30
24278;BMP280;12394;42.692;23.314;2023-09-19T13:29:11;95013.66;;;28.24
24278;BMP280;12394;42.692;23.314;2023-09-19T13:31:37;95013.66;;;28.24
24278;BMP280;12394;42.692;23.314;2023-09-19T13:34:07;95018.53;;;28.26
24278;BMP280;12394;42.692;23.314;2023-09-19T13:36:32;95017.28;;;28.33
24278;BMP280;12394;42.692;23.314;2023-09-19T13:38:58;95005.16;;;28.15
24278;BMP280;12394;42.692;23.314;2023-09-19T13:41:25;95008.44;;;27.91
24278;BMP280;12394;42.692;23.314;2023-09-19T13:43:51;94978.69;;;27.78
24278;BMP280;12394;42.692;23.314;2023-09-19T13:46:18;95002.06;;;27.94
24278;BMP280;12394;42.692;23.314;2023-09-19T13:48:50;95014.75;;;27.99
24278;BMP280;12394;42.692;23.314;2023-09-19T13:51:17;95007.44;;;27.94
24278;BMP280;12394;42.692;23.314;2023-09-19T13:53:44;95007.41;;;28.05
24278;BMP280;12394;42.692;23.314;2023-09-19T13:56:09;95014.56;;;27.92
24278;BMP280;12394;42.692;23.314;2023-09-19T13:58:36;95000.47;;;27.74
24278;BMP280;12394;42.692;23.314;2023-09-19T14:01:01;95002.47;;;27.68
24278;BMP280;12394;42.692;23.314;2023-09-19T14:03:27;94996.63;;;27.59
24278;BMP280;12394;42.692;23.314;2023-09-19T14:05:53;95003.28;;;27.41
24278;BMP280;12394;42.692;23.314;2023-09-19T14:08:22;95008.38;;;27.44
24278;BMP280;12394;42.692;23.314;2023-09-19T14:10:48;95002.53;;;27.57
24278;BMP280;12394;42.692;23.314;2023-09-19T14:13:14;95015.44;;;27.59
24278;BMP280;12394;42.692;23.314;2023-09-19T14:15:40;95015.69;;;27.61
24278;BMP280;12394;42.692;23.314;2023-09-19T14:18:06;95015.41;;;27.70
24278;BMP280;12394;42.692;23.314;2023-09-19T14:20:31;95012.94;;;27.72
24278;BMP280;12394;42.692;23.314;2023-09-19T14:23:00;95015.34;;;27.81
24278;BMP280;12394;42.692;23.314;2023-09-19T14:25:26;94999.69;;;27.85
24278;BMP280;12394;42.692;23.314;2023-09-19T14:27:56;94999.72;;;27.79
24278;BMP280;12394;42.692;23.314;2023-09-19T14:30:22;94994.06;;;27.89
24278;BMP280;12394;42.692;23.314;2023-09-19T14:32:48;94991.91;;;27.76
24278;BMP280;12394;42.692;23.314;2023-09-19T14:35:13;94970.78;;;27.50
24278;BMP280;12394;42.692;23.314;2023-09-19T14:37:40;94981.44;;;27.67
24278;BMP280;12394;42.692;23.314;2023-09-19T14:40:08;94985.09;;;27.75
24278;BMP280;12394;42.692;23.314;2023-09-19T14:42:38;94989.50;;;27.67
24278;BMP280;12394;42.692;23.314;2023-09-19T14:45:04;94987.56;;;27.67
24278;BMP280;12394;42.692;23.314;2023-09-19T14:47:30;94992.69;;;27.71
24278;BMP280;12394;42.692;23.314;2023-09-19T14:49:59;94986.59;;;27.65
24278;BMP280;12394;42.692;23.314;2023-09-19T14:52:25;94976.16;;;27.50
24278;BMP280;12394;42.692;23.314;2023-09-19T14:54:53;94990.06;;;27.49
24278;BMP280;12394;42.692;23.314;2023-09-19T14:57:22;94983.72;;;27.40